createdAt,value
2018-05-03T00:00:09.971Z,74.95
2018-05-03T00:02:39.017Z,74.72
2018-05-03T00:07:44.171Z,75.37
2018-05-03T00:10:13.213Z,75.07
2018-05-03T00:12:42.280Z,76.12
2018-05-03T00:15:11.361Z,75.05
2018-05-03T00:17:40.417Z,76.20
2018-05-03T00:20:09.546Z,76.39
2018-05-03T00:22:38.602Z,76.41
2018-05-03T00:25:07.727Z,75.50
2018-05-03T00:27:36.788Z,75.13
2018-05-03T00:30:05.831Z,75.67
2018-05-03T00:32:34.966Z,74.75
2018-05-03T00:37:39.794Z,74.03
2018-05-03T00:40:09.092Z,74.14
2018-05-03T00:42:38.151Z,74.47
2018-05-03T00:45:07.203Z,74.82
2018-05-03T00:47:36.258Z,74.00
2018-05-03T00:50:05.573Z,74.96
2018-05-03T00:52:34.621Z,74.67
2018-05-03T00:55:03.680Z,74.42
2018-05-03T00:57:32.718Z,74.09
2018-05-03T01:00:01.950Z,73.80
2018-05-03T01:02:31.057Z,73.38
2018-05-03T01:05:00.095Z,74.04
2018-05-03T01:07:29.242Z,74.30
2018-05-03T01:09:58.314Z,75.10
2018-05-03T01:15:03.217Z,76.42
2018-05-03T01:17:32.403Z,76.78
2018-05-03T01:20:01.456Z,76.12
2018-05-03T01:22:30.538Z,76.90
2018-05-03T01:24:59.590Z,76.46
2018-05-03T01:27:28.823Z,76.95
2018-05-03T01:29:57.870Z,76.35
2018-05-03T01:37:50.363Z,77.31
2018-05-03T01:42:55.197Z,76.76
2018-05-03T01:48:00.036Z,76.06
2018-05-03T01:50:29.087Z,76.33
2018-05-03T01:52:58.202Z,76.22
2018-05-03T01:55:27.254Z,76.20
2018-05-03T01:57:56.305Z,76.32
2018-05-03T02:00:25.341Z,76.68
2018-05-03T02:02:54.533Z,76.37
2018-05-03T02:05:23.587Z,76.82
2018-05-03T02:07:52.633Z,76.18
2018-05-03T02:10:21.704Z,76.56
2018-05-03T02:12:50.933Z,76.98
2018-05-03T02:15:20.360Z,75.98
2018-05-03T02:17:49.407Z,75.89
2018-05-03T02:20:18.486Z,75.82
2018-05-03T02:22:47.541Z,75.97
2018-05-03T02:25:16.897Z,76.04
2018-05-03T02:27:46.854Z,76.24
2018-05-03T02:30:15.931Z,76.41
2018-05-03T02:32:45.017Z,75.75
2018-05-03T02:35:14.101Z,75.71
2018-05-03T02:37:43.148Z,75.65
2018-05-03T02:40:12.214Z,75.22
2018-05-03T02:42:42.374Z,74.69
2018-05-03T02:45:11.644Z,74.78
2018-05-03T02:47:40.674Z,74.63
2018-05-03T02:50:09.776Z,74.74
2018-05-03T02:52:39.218Z,74.41
2018-05-03T02:55:08.246Z,74.60
2018-05-03T02:58:00.469Z,75.09
2018-05-03T03:00:52.818Z,75.27
2018-05-03T03:15:31.544Z,74.20
2018-05-03T03:18:18.174Z,74.53
2018-05-03T03:21:10.479Z,74.92
2018-05-03T03:29:58.618Z,74.46
2018-05-03T03:32:45.695Z,74.75
2018-05-03T03:39:00.178Z,74.04
2018-05-03T03:46:44.748Z,73.59
2018-05-03T03:49:13.799Z,73.61
2018-05-03T03:51:42.845Z,73.79
2018-05-03T03:54:12.049Z,73.74
2018-05-03T03:56:41.098Z,73.77
2018-05-03T04:01:45.923Z,72.91
2018-05-03T04:04:14.998Z,73.09
2018-05-03T04:06:44.260Z,72.86
2018-05-03T04:09:13.308Z,73.07
2018-05-03T04:11:42.353Z,73.96
2018-05-03T04:14:11.395Z,74.61
2018-05-03T04:16:40.457Z,74.45
2018-05-03T04:22:22.007Z,74.73
2018-05-03T04:25:08.654Z,74.90
2018-05-03T04:27:37.706Z,75.73
2018-05-03T04:30:06.980Z,75.65
2018-05-03T04:32:37.422Z,76.29
2018-05-03T04:35:07.450Z,76.13
2018-05-03T04:37:36.490Z,75.67
2018-05-03T04:40:05.941Z,75.49
2018-05-03T04:42:34.988Z,75.09
2018-05-03T04:45:04.042Z,74.61
2018-05-03T04:47:33.359Z,74.19
2018-05-03T04:50:02.418Z,73.83
2018-05-03T04:52:31.522Z,73.62
2018-05-03T04:55:00.862Z,73.16
2018-05-03T04:57:29.910Z,72.84
2018-05-03T04:59:58.989Z,72.49
2018-05-03T05:02:28.310Z,72.20
2018-05-03T05:04:57.558Z,71.65
2018-05-03T05:07:26.603Z,71.32
2018-05-03T05:09:56.025Z,71.92
2018-05-03T05:12:25.074Z,71.39
2018-05-03T05:14:54.153Z,70.87
2018-05-03T05:17:23.196Z,72.12
2018-05-03T05:19:52.254Z,72.62
2018-05-03T05:22:22.131Z,72.44
2018-05-03T05:24:51.170Z,72.24
2018-05-03T05:27:20.219Z,72.78
2018-05-03T05:29:49.290Z,72.01
2018-05-03T05:34:54.047Z,72.11
2018-05-03T05:37:23.112Z,71.43
2018-05-03T05:39:52.174Z,71.72
2018-05-03T05:44:56.523Z,71.13
2018-05-03T05:47:25.566Z,71.34
2018-05-03T05:49:55.103Z,70.50
2018-05-03T05:52:24.154Z,70.32
2018-05-03T05:54:53.276Z,70.42
2018-05-03T05:57:22.304Z,69.91
2018-05-03T05:59:51.705Z,69.85
2018-05-03T06:04:56.458Z,69.17
2018-05-03T06:07:25.509Z,69.43
2018-05-03T06:09:54.699Z,68.96
2018-05-03T06:12:23.766Z,69.07
2018-05-03T06:14:53.231Z,69.70
2018-05-03T06:17:22.277Z,68.96
2018-05-03T06:19:51.755Z,68.19
2018-05-03T06:22:20.804Z,68.64
2018-05-03T06:24:49.871Z,68.80
2018-05-03T06:27:19.733Z,68.46
2018-05-03T06:29:48.762Z,68.05
2018-05-03T06:32:18.478Z,65.92
2018-05-03T06:34:47.686Z,65.95
2018-05-03T06:37:17.683Z,65.37
2018-05-03T06:39:47.019Z,64.91
2018-05-03T06:42:16.085Z,64.80
2018-05-03T06:44:45.718Z,65.57
2018-05-03T06:47:14.770Z,64.82
2018-05-03T06:49:44.763Z,62.45
2018-05-03T06:52:16.362Z,62.39
2018-05-03T06:54:45.425Z,61.61
2018-05-03T06:59:50.427Z,61.04
2018-05-03T07:02:19.557Z,60.05
2018-05-03T07:04:48.640Z,59.85
2018-05-03T07:09:54.042Z,59.18
2018-05-03T07:12:23.104Z,57.78
2018-05-03T07:14:52.547Z,57.94
2018-05-03T07:19:57.383Z,55.89
2018-05-03T07:22:26.902Z,53.67
2018-05-03T07:24:55.960Z,54.61
2018-05-03T07:27:25.887Z,54.77
2018-05-03T07:29:55.133Z,55.62
2018-05-03T07:32:24.174Z,54.72
2018-05-03T07:34:53.276Z,54.88
2018-05-03T07:37:22.274Z,54.63
2018-05-03T07:42:29.161Z,54.19
2018-05-03T07:47:35.134Z,53.40
2018-05-03T07:50:04.157Z,53.74
2018-05-03T07:52:34.607Z,52.84
2018-05-03T07:55:03.691Z,52.06
2018-05-03T07:57:32.943Z,52.70
2018-05-03T08:00:02.018Z,52.44
2018-05-03T08:02:31.067Z,53.07
2018-05-03T08:05:00.134Z,52.08
2018-05-03T08:07:29.178Z,51.67
2018-05-03T08:12:34.701Z,51.06
2018-05-03T08:15:03.679Z,50.50
2018-05-03T08:17:33.213Z,51.91
2018-05-03T08:20:02.264Z,53.20
2018-05-03T08:22:31.442Z,52.68
2018-05-03T08:30:12.270Z,48.47
2018-05-03T08:32:41.322Z,46.81
2018-05-03T08:35:10.376Z,47.10
2018-05-03T08:37:39.792Z,45.45
2018-05-03T08:40:08.811Z,47.51
2018-05-03T08:42:38.754Z,45.32
2018-05-03T08:45:07.790Z,47.64
2018-05-03T08:47:37.674Z,43.63
2018-05-03T08:50:06.727Z,44.58
2018-05-03T08:52:35.785Z,43.82
2018-05-03T08:55:06.690Z,42.86
2018-05-03T08:57:35.787Z,42.05
2018-05-03T09:00:04.833Z,45.48
2018-05-03T09:02:33.887Z,44.37
2018-05-03T09:05:02.933Z,44.05
2018-05-03T09:07:32.039Z,42.94
2018-05-03T09:10:01.177Z,43.65
2018-05-03T09:12:30.225Z,44.94
2018-05-03T09:14:59.891Z,45.42
2018-05-03T09:17:28.934Z,42.98
2018-05-03T09:19:58.949Z,43.97
2018-05-03T09:22:27.988Z,44.11
2018-05-03T09:27:32.910Z,43.93
2018-05-03T09:30:01.963Z,44.57
2018-05-03T09:32:31.026Z,46.26
2018-05-03T09:35:00.082Z,46.27
2018-05-03T09:37:29.125Z,45.70
2018-05-03T09:42:33.997Z,44.54
2018-05-03T09:45:03.983Z,44.79
2018-05-03T09:47:33.031Z,42.95
2018-05-03T09:50:02.859Z,42.25
2018-05-03T09:52:32.053Z,41.00
2018-05-03T09:55:02.115Z,40.29
2018-05-03T09:57:31.161Z,38.50
2018-05-03T10:00:00.211Z,38.21
2018-05-03T10:02:29.279Z,33.39
2018-05-03T10:04:58.699Z,34.23
2018-05-03T10:07:27.734Z,33.57
2018-05-03T10:09:57.965Z,31.18
2018-05-03T10:12:27.047Z,31.13
2018-05-03T10:20:09.026Z,29.35
2018-05-03T10:25:13.856Z,28.29
2018-05-03T10:27:42.897Z,26.94
2018-05-03T10:32:47.802Z,26.30
2018-05-03T10:35:17.375Z,25.98
2018-05-03T10:37:46.422Z,28.52
2018-05-03T10:40:16.059Z,25.16
2018-05-03T10:42:45.103Z,26.56
2018-05-03T10:45:14.154Z,28.28
2018-05-03T10:47:44.464Z,24.67
2018-05-03T10:50:13.513Z,24.25
2018-05-03T10:52:43.235Z,26.21
2018-05-03T10:55:12.293Z,24.35
2018-05-03T10:57:41.895Z,26.40
2018-05-03T11:00:10.976Z,27.84
2018-05-03T11:02:40.055Z,25.55
2018-05-03T11:05:09.126Z,25.57
2018-05-03T11:07:38.181Z,25.42
2018-05-03T11:10:07.279Z,23.90
2018-05-03T11:15:12.138Z,23.29
2018-05-03T11:17:41.190Z,22.01
2018-05-03T11:20:11.290Z,23.86
2018-05-03T11:22:40.347Z,24.13
2018-05-03T11:25:10.061Z,22.22
2018-05-03T11:30:14.919Z,25.87
2018-05-03T11:35:19.776Z,27.95
2018-05-03T11:37:49.512Z,29.60
2018-05-03T11:40:18.548Z,31.82
2018-05-03T11:42:48.144Z,31.53
2018-05-03T11:45:17.106Z,31.10
2018-05-03T11:50:22.299Z,31.70
2018-05-03T11:52:51.370Z,33.26
2018-05-03T11:55:20.454Z,33.57
2018-05-03T11:57:49.501Z,32.36
2018-05-03T12:00:18.561Z,33.84
2018-05-03T12:02:47.626Z,34.75
2018-05-03T12:05:16.697Z,33.90
2018-05-03T12:07:45.750Z,33.82
2018-05-03T12:10:16.043Z,36.27
2018-05-03T12:12:45.152Z,37.81
2018-05-03T12:15:14.969Z,37.04
2018-05-03T12:17:44.025Z,38.18
2018-05-03T12:22:48.827Z,40.27
2018-05-03T12:25:18.537Z,40.00
2018-05-03T12:27:48.522Z,40.18
2018-05-03T12:30:17.578Z,39.15
2018-05-03T12:32:47.108Z,38.38
2018-05-03T12:35:16.177Z,39.35
2018-05-03T12:37:46.141Z,37.22
2018-05-03T12:42:50.927Z,36.66
2018-05-03T12:45:20.127Z,36.79
2018-05-03T12:50:25.838Z,37.63
2018-05-03T12:52:54.898Z,36.58
2018-05-03T12:55:24.715Z,37.71
2018-05-03T12:57:53.782Z,38.03
2018-05-03T13:00:22.881Z,37.24
2018-05-03T13:02:52.069Z,35.83
2018-05-03T13:05:21.111Z,38.13
2018-05-03T13:07:50.175Z,36.53
2018-05-03T13:10:19.227Z,37.20
2018-05-03T13:12:49.096Z,39.34
2018-05-03T13:15:18.126Z,38.53
2018-05-03T13:17:48.099Z,37.14
2018-05-03T13:20:17.259Z,37.51
2018-05-03T13:22:46.383Z,36.68
2018-05-03T13:25:15.438Z,38.22
2018-05-03T13:30:21.214Z,38.26
2018-05-03T13:35:25.966Z,38.47
2018-05-03T13:37:55.370Z,37.19
2018-05-03T13:43:00.223Z,38.71
2018-05-03T13:45:29.331Z,36.41
2018-05-03T13:47:59.462Z,36.69
2018-05-03T13:53:04.199Z,34.92
2018-05-03T13:55:36.698Z,33.87
2018-05-03T13:58:06.697Z,33.70
2018-05-03T14:00:35.758Z,33.61
2018-05-03T14:03:04.808Z,32.43
2018-05-03T14:05:33.868Z,30.52
2018-05-03T14:08:03.272Z,27.88
2018-05-03T14:13:08.528Z,28.89
2018-05-03T14:15:37.558Z,29.74
2018-05-03T14:18:06.646Z,30.38
2018-05-03T14:20:35.826Z,32.25
2018-05-03T14:23:04.940Z,35.71
2018-05-03T14:25:35.482Z,36.38
2018-05-03T14:28:04.522Z,35.64
2018-05-03T14:30:33.928Z,38.23
2018-05-03T14:33:02.982Z,39.55
2018-05-03T14:38:08.257Z,39.95
2018-05-03T14:40:37.339Z,37.02
2018-05-03T14:43:08.764Z,34.48
2018-05-03T14:45:38.154Z,30.71
2018-05-03T14:48:07.205Z,29.69
2018-05-03T14:50:36.294Z,30.87
2018-05-03T14:53:05.816Z,32.99
2018-05-03T14:55:37.636Z,32.01
2018-05-03T14:58:08.766Z,33.67
2018-05-03T15:00:44.069Z,34.75
2018-05-03T15:03:19.277Z,37.41
2018-05-03T15:05:50.663Z,38.52
2018-05-03T15:08:21.797Z,40.59
2018-05-03T15:10:51.678Z,39.85
2018-05-03T15:13:21.436Z,40.38
2018-05-03T15:15:50.666Z,40.82
2018-05-03T15:18:27.603Z,42.42
2018-05-03T15:23:39.163Z,43.38
2018-05-03T15:26:09.930Z,47.26
2018-05-03T15:28:39.639Z,45.13
2018-05-03T15:31:19.844Z,47.72
2018-05-03T15:33:50.000Z,50.25
2018-05-03T15:36:19.123Z,52.12
2018-05-03T15:38:48.570Z,51.41
2018-05-03T15:41:17.847Z,51.66
2018-05-03T15:43:56.775Z,55.18
2018-05-03T15:46:27.451Z,54.45
2018-05-03T15:48:56.638Z,56.68
2018-05-03T15:51:26.946Z,56.73
2018-05-03T15:53:56.181Z,57.01
2018-05-03T15:56:25.258Z,57.05
2018-05-03T15:58:54.342Z,56.75
2018-05-03T16:03:59.128Z,54.94
2018-05-03T16:06:28.208Z,56.35
2018-05-03T16:08:57.878Z,53.79
2018-05-03T16:11:26.952Z,53.87
2018-05-03T16:13:57.028Z,56.68
2018-05-03T16:19:02.000Z,57.05
2018-05-03T16:21:31.247Z,58.63
2018-05-03T16:24:00.612Z,57.16
2018-05-03T16:26:29.816Z,57.27
2018-05-03T16:29:00.145Z,60.75
2018-05-03T16:31:29.312Z,58.34
2018-05-03T16:33:58.442Z,57.52
2018-05-03T16:36:27.566Z,58.72
2018-05-03T16:38:56.634Z,61.18
2018-05-03T16:41:25.790Z,58.82
2018-05-03T16:43:55.441Z,59.53
2018-05-03T16:46:24.776Z,57.95
2018-05-03T16:48:53.907Z,59.66
2018-05-03T16:51:23.458Z,58.71
2018-05-03T16:53:52.636Z,58.36
2018-05-03T16:56:21.742Z,58.54
2018-05-03T16:58:50.903Z,58.35
2018-05-03T17:01:20.002Z,59.63
2018-05-03T17:06:25.550Z,59.82
2018-05-03T17:08:54.692Z,59.15
2018-05-03T17:11:23.980Z,59.10
2018-05-03T17:13:53.232Z,60.86
2018-05-03T17:16:22.345Z,60.76
2018-05-03T17:21:27.539Z,60.07
2018-05-03T17:23:57.491Z,61.69
2018-05-03T17:26:26.627Z,60.09
2018-05-03T17:28:55.762Z,59.40
2018-05-03T17:31:25.221Z,61.45
2018-05-03T17:33:54.329Z,61.55
2018-05-03T17:36:23.852Z,63.72
2018-05-03T17:38:52.962Z,63.64
2018-05-03T17:43:57.901Z,62.70
2018-05-03T17:46:28.237Z,62.11
2018-05-03T17:48:57.413Z,62.07
2018-05-03T17:51:26.535Z,62.48
2018-05-03T17:53:55.626Z,62.82
2018-05-03T17:56:25.181Z,63.97
2018-05-03T17:58:54.395Z,64.15
2018-05-03T18:01:24.820Z,64.22
2018-05-03T18:03:54.975Z,62.85
2018-05-03T18:06:24.123Z,63.23
2018-05-03T18:08:53.535Z,66.23
2018-05-03T18:11:22.619Z,64.43
2018-05-03T18:13:52.669Z,66.33
2018-05-03T18:16:22.357Z,65.88
2018-05-03T18:18:51.925Z,66.25
2018-05-03T18:21:21.034Z,68.10
2018-05-03T18:23:51.025Z,66.65
2018-05-03T18:26:20.500Z,67.74
2018-05-03T18:28:49.613Z,65.65
2018-05-03T18:31:18.691Z,67.36
2018-05-03T18:33:47.871Z,67.84
2018-05-03T18:38:52.679Z,66.66
2018-05-03T18:41:22.322Z,65.82
2018-05-03T18:46:27.624Z,64.62
2018-05-03T18:48:57.215Z,66.13
2018-05-03T18:51:26.373Z,65.99
2018-05-03T18:53:55.932Z,64.73
2018-05-03T18:59:00.847Z,65.30
2018-05-03T19:01:29.958Z,63.93
2018-05-03T19:03:59.500Z,64.43
2018-05-03T19:06:28.530Z,64.87
2018-05-03T19:08:57.805Z,66.15
2018-05-03T19:11:26.986Z,65.88
2018-05-03T19:13:56.766Z,66.61
2018-05-03T19:16:25.864Z,66.92
2018-05-03T19:18:54.972Z,66.13
2018-05-03T19:21:25.122Z,66.08
2018-05-03T19:23:54.801Z,64.97
2018-05-03T19:26:25.007Z,66.75
2018-05-03T19:28:54.139Z,66.79
2018-05-03T19:31:23.808Z,66.41
2018-05-03T19:33:53.007Z,66.90
2018-05-03T19:36:22.152Z,67.42
2018-05-03T19:38:51.971Z,66.59
2018-05-03T19:43:57.977Z,65.62
2018-05-03T19:49:03.078Z,65.18
2018-05-03T19:51:32.599Z,66.18
2018-05-03T19:54:01.629Z,65.68
2018-05-03T19:56:30.843Z,65.31
2018-05-03T19:59:00.455Z,65.07
2018-05-03T20:01:30.047Z,65.96
2018-05-03T20:03:59.184Z,66.83
2018-05-03T20:06:28.456Z,66.93
2018-05-03T20:11:33.650Z,67.03
2018-05-03T20:14:02.712Z,67.09
2018-05-03T20:19:07.575Z,66.39
2018-05-03T20:21:36.664Z,66.54
2018-05-03T20:24:06.349Z,67.12
2018-05-03T20:26:35.479Z,66.30
2018-05-03T20:29:05.160Z,65.73
2018-05-03T20:31:34.325Z,67.49
2018-05-03T20:34:03.943Z,67.37
2018-05-03T20:36:33.424Z,67.49
2018-05-03T20:39:02.607Z,68.15
2018-05-03T20:41:31.786Z,67.43
2018-05-03T20:44:01.348Z,68.13
2018-05-03T20:46:30.769Z,68.06
2018-05-03T20:48:59.941Z,67.56
2018-05-03T20:54:05.074Z,67.72
2018-05-03T20:56:35.246Z,66.96
2018-05-03T20:59:04.721Z,66.53
2018-05-03T21:04:09.509Z,67.83
2018-05-03T21:06:38.581Z,68.59
2018-05-03T21:09:08.146Z,68.51
2018-05-03T21:11:37.609Z,69.96
2018-05-03T21:14:06.698Z,68.09
2018-05-03T21:19:11.699Z,69.81
2018-05-03T21:24:16.624Z,69.76
2018-05-03T21:26:46.453Z,70.97
2018-05-03T21:29:15.543Z,71.01
2018-05-03T21:31:44.806Z,70.83
2018-05-03T21:34:14.001Z,71.00
2018-05-03T21:36:43.080Z,71.70
2018-05-03T21:39:12.145Z,71.45
2018-05-03T21:41:41.394Z,72.50
2018-05-03T21:44:12.780Z,72.44
2018-05-03T21:46:41.844Z,72.94
2018-05-03T21:49:11.075Z,71.90
2018-05-03T21:51:40.160Z,73.05
2018-05-03T21:54:09.233Z,73.81
2018-05-03T21:56:39.006Z,73.90
2018-05-03T21:59:08.119Z,73.94
2018-05-03T22:01:37.225Z,72.47
2018-05-03T22:04:06.409Z,73.32
2018-05-03T22:06:35.472Z,73.86
2018-05-03T22:09:06.906Z,73.98
2018-05-03T22:11:36.177Z,73.69
2018-05-03T22:14:05.377Z,74.04
2018-05-03T22:16:34.486Z,73.99
2018-05-03T22:19:03.582Z,72.19
2018-05-03T22:24:08.629Z,72.47
2018-05-03T22:26:37.828Z,72.27
2018-05-03T22:29:07.388Z,73.88
2018-05-03T22:31:36.502Z,73.64
2018-05-03T22:34:05.663Z,73.74
2018-05-03T22:36:35.263Z,74.74
2018-05-03T22:39:04.329Z,74.84
2018-05-03T22:44:13.061Z,74.48
2018-05-03T22:46:42.263Z,75.51
2018-05-03T22:49:11.396Z,75.78
2018-05-03T22:51:40.618Z,76.15
2018-05-03T22:54:09.706Z,76.00
2018-05-03T22:56:38.850Z,76.43
2018-05-03T22:59:08.040Z,76.27
2018-05-03T23:01:37.148Z,76.18
2018-05-03T23:04:06.342Z,75.36
2018-05-03T23:06:36.291Z,76.60
2018-05-03T23:09:05.434Z,75.72
2018-05-03T23:11:34.561Z,75.12
2018-05-03T23:14:03.736Z,76.80
2018-05-03T23:16:33.532Z,77.64
2018-05-03T23:19:02.627Z,76.88
2018-05-03T23:24:07.548Z,75.24
2018-05-03T23:26:36.662Z,75.91
2018-05-03T23:29:06.079Z,74.75
2018-05-03T23:31:35.195Z,74.80
2018-05-03T23:34:04.664Z,73.96
2018-05-03T23:36:34.073Z,74.57
2018-05-03T23:39:03.174Z,74.68
2018-05-03T23:41:32.277Z,73.75
2018-05-03T23:44:01.683Z,74.38
2018-05-03T23:46:30.803Z,75.36
2018-05-03T23:48:59.946Z,74.09
2018-05-03T23:51:30.650Z,74.29
2018-05-03T23:54:00.619Z,73.06
2018-05-03T23:56:29.833Z,73.65
2018-05-03T23:58:59.315Z,73.89
